Mcbride, Canada
Current Conditions -  °F | °C
As of 7:00 PM on Friday 28 Nov 2014 (Local Time) from CYQZ Reporting Station
Clear Clear  
Wind Chill: -30°   Ceiling: Unl
Heat Index: -19°   Visibility: 9mi
Dew Point: -23°   Wind: 14mph
Humidity: 71%   Direction: 330°NNW
Pressure: 29.9"   Gusts: 20mph
Location:  53.3°N, 120.17°W
Report Text: CYQZ 290300Z AUTO 33012G17KT 9SM CLR M19/M23 A2990 RMK SLP178
Loading
Personal Weather Stations






























Interactive Weather Map New forecast layout! Learn more

10-Day Weather Forecast

Advertisements
Track Severe Weather on mobile